sensor_id;sensor_type;location;lat;lon;timestamp;temperature;humidity
47310;DHT22;33046;52.270;6.832;2023-07-13T00:00:12;21.60;74.10
47310;DHT22;33046;52.270;6.832;2023-07-13T00:02:20;21.50;74.30
47310;DHT22;33046;52.270;6.832;2023-07-13T00:04:27;21.50;74.50
47310;DHT22;33046;52.270;6.832;2023-07-13T00:06:35;21.50;74.60
47310;DHT22;33046;52.270;6.832;2023-07-13T00:08:41;21.50;74.60
47310;DHT22;33046;52.270;6.832;2023-07-13T00:10:51;21.50;74.70
47310;DHT22;33046;52.270;6.832;2023-07-13T00:12:58;21.40;74.90
47310;DHT22;33046;52.270;6.832;2023-07-13T00:15:10;21.40;75.00
47310;DHT22;33046;52.270;6.832;2023-07-13T00:17:19;21.40;75.20
47310;DHT22;33046;52.270;6.832;2023-07-13T00:19:26;21.40;75.30
47310;DHT22;33046;52.270;6.832;2023-07-13T00:21:33;21.40;75.40
47310;DHT22;33046;52.270;6.832;2023-07-13T00:23:41;21.30;75.60
47310;DHT22;33046;52.270;6.832;2023-07-13T00:25:49;21.30;75.50
47310;DHT22;33046;52.270;6.832;2023-07-13T00:27:56;21.30;75.70
47310;DHT22;33046;52.270;6.832;2023-07-13T00:30:03;21.30;75.90
47310;DHT22;33046;52.270;6.832;2023-07-13T00:32:11;21.30;76.20
47310;DHT22;33046;52.270;6.832;2023-07-13T00:34:19;21.30;76.10
47310;DHT22;33046;52.270;6.832;2023-07-13T00:36:26;21.20;76.30
47310;DHT22;33046;52.270;6.832;2023-07-13T00:38:33;21.20;76.30
47310;DHT22;33046;52.270;6.832;2023-07-13T00:40:40;21.20;76.40
47310;DHT22;33046;52.270;6.832;2023-07-13T00:42:48;21.20;76.80
47310;DHT22;33046;52.270;6.832;2023-07-13T00:45:06;21.10;76.80
47310;DHT22;33046;52.270;6.832;2023-07-13T00:47:14;21.10;76.90
47310;DHT22;33046;52.270;6.832;2023-07-13T00:49:24;21.10;77.10
47310;DHT22;33046;52.270;6.832;2023-07-13T00:51:36;21.10;77.20
47310;DHT22;33046;52.270;6.832;2023-07-13T00:53:43;21.00;77.50
47310;DHT22;33046;52.270;6.832;2023-07-13T00:55:51;21.00;77.60
47310;DHT22;33046;52.270;6.832;2023-07-13T00:58:01;21.00;77.90
47310;DHT22;33046;52.270;6.832;2023-07-13T01:00:09;21.00;78.20
47310;DHT22;33046;52.270;6.832;2023-07-13T01:02:17;20.90;78.60
47310;DHT22;33046;52.270;6.832;2023-07-13T01:04:26;20.90;78.60
47310;DHT22;33046;52.270;6.832;2023-07-13T01:06:34;20.80;78.60
47310;DHT22;33046;52.270;6.832;2023-07-13T01:08:42;20.80;78.80
47310;DHT22;33046;52.270;6.832;2023-07-13T01:10:53;20.80;78.70
47310;DHT22;33046;52.270;6.832;2023-07-13T01:13:00;20.70;78.90
47310;DHT22;33046;52.270;6.832;2023-07-13T01:15:34;20.70;79.10
47310;DHT22;33046;52.270;6.832;2023-07-13T01:17:42;20.70;79.20
47310;DHT22;33046;52.270;6.832;2023-07-13T01:19:50;20.60;80.00
47310;DHT22;33046;52.270;6.832;2023-07-13T01:21:58;20.60;79.60
47310;DHT22;33046;52.270;6.832;2023-07-13T01:24:06;20.50;79.70
47310;DHT22;33046;52.270;6.832;2023-07-13T01:26:13;20.60;79.90
47310;DHT22;33046;52.270;6.832;2023-07-13T01:28:20;20.50;80.00
47310;DHT22;33046;52.270;6.832;2023-07-13T01:30:27;20.50;80.20
47310;DHT22;33046;52.270;6.832;2023-07-13T01:32:34;20.40;80.30
47310;DHT22;33046;52.270;6.832;2023-07-13T01:34:41;20.40;80.50
47310;DHT22;33046;52.270;6.832;2023-07-13T01:36:48;20.40;80.60
47310;DHT22;33046;52.270;6.832;2023-07-13T01:38:56;20.40;80.60
47310;DHT22;33046;52.270;6.832;2023-07-13T01:41:03;20.40;80.60
47310;DHT22;33046;52.270;6.832;2023-07-13T01:43:11;20.40;80.50
47310;DHT22;33046;52.270;6.832;2023-07-13T01:45:18;20.40;80.80
47310;DHT22;33046;52.270;6.832;2023-07-13T01:47:25;20.30;80.60
47310;DHT22;33046;52.270;6.832;2023-07-13T01:49:32;20.30;80.80
47310;DHT22;33046;52.270;6.832;2023-07-13T01:51:39;20.30;80.90
47310;DHT22;33046;52.270;6.832;2023-07-13T01:53:46;20.30;81.10
47310;DHT22;33046;52.270;6.832;2023-07-13T01:55:54;20.20;81.00
47310;DHT22;33046;52.270;6.832;2023-07-13T01:58:02;20.20;81.10
47310;DHT22;33046;52.270;6.832;2023-07-13T02:00:10;20.20;81.20
47310;DHT22;33046;52.270;6.832;2023-07-13T02:02:26;20.20;81.10
47310;DHT22;33046;52.270;6.832;2023-07-13T02:04:33;20.20;81.30
47310;DHT22;33046;52.270;6.832;2023-07-13T02:06:40;20.20;81.50
47310;DHT22;33046;52.270;6.832;2023-07-13T02:08:47;20.10;81.50
47310;DHT22;33046;52.270;6.832;2023-07-13T02:10:55;20.10;81.40
47310;DHT22;33046;52.270;6.832;2023-07-13T02:13:05;20.10;81.40
47310;DHT22;33046;52.270;6.832;2023-07-13T02:15:12;20.10;81.50
47310;DHT22;33046;52.270;6.832;2023-07-13T02:17:19;20.10;81.70
47310;DHT22;33046;52.270;6.832;2023-07-13T02:19:26;20.00;81.80
47310;DHT22;33046;52.270;6.832;2023-07-13T02:21:33;20.10;81.90
47310;DHT22;33046;52.270;6.832;2023-07-13T02:23:40;20.00;81.80
47310;DHT22;33046;52.270;6.832;2023-07-13T02:25:47;20.00;81.90
47310;DHT22;33046;52.270;6.832;2023-07-13T02:27:56;20.00;82.00
47310;DHT22;33046;52.270;6.832;2023-07-13T02:30:04;20.00;81.80
47310;DHT22;33046;52.270;6.832;2023-07-13T02:32:11;20.00;82.00
47310;DHT22;33046;52.270;6.832;2023-07-13T02:34:18;20.00;82.10
47310;DHT22;33046;52.270;6.832;2023-07-13T02:36:25;19.90;82.00
47310;DHT22;33046;52.270;6.832;2023-07-13T02:38:32;20.00;82.00
47310;DHT22;33046;52.270;6.832;2023-07-13T02:40:41;19.90;82.20
47310;DHT22;33046;52.270;6.832;2023-07-13T02:42:48;19.90;82.20
47310;DHT22;33046;52.270;6.832;2023-07-13T02:44:56;19.90;82.40
47310;DHT22;33046;52.270;6.832;2023-07-13T02:47:03;19.90;82.30
47310;DHT22;33046;52.270;6.832;2023-07-13T02:49:10;19.90;82.60
47310;DHT22;33046;52.270;6.832;2023-07-13T02:51:17;19.90;82.50
47310;DHT22;33046;52.270;6.832;2023-07-13T02:53:24;19.90;82.50
47310;DHT22;33046;52.270;6.832;2023-07-13T02:55:31;19.90;82.70
47310;DHT22;33046;52.270;6.832;2023-07-13T02:57:39;19.90;82.40
47310;DHT22;33046;52.270;6.832;2023-07-13T02:59:46;19.80;82.70
47310;DHT22;33046;52.270;6.832;2023-07-13T03:01:54;19.80;82.80
47310;DHT22;33046;52.270;6.832;2023-07-13T03:04:01;19.80;82.90
47310;DHT22;33046;52.270;6.832;2023-07-13T03:06:11;19.80;83.00
47310;DHT22;33046;52.270;6.832;2023-07-13T03:08:26;19.80;82.70
47310;DHT22;33046;52.270;6.832;2023-07-13T03:10:33;19.80;82.80
47310;DHT22;33046;52.270;6.832;2023-07-13T03:12:41;19.80;82.80
47310;DHT22;33046;52.270;6.832;2023-07-13T03:14:55;19.80;82.80
47310;DHT22;33046;52.270;6.832;2023-07-13T03:17:05;19.80;82.80
47310;DHT22;33046;52.270;6.832;2023-07-13T03:19:15;19.80;82.70
47310;DHT22;33046;52.270;6.832;2023-07-13T03:21:26;19.80;82.80
47310;DHT22;33046;52.270;6.832;2023-07-13T03:23:33;19.80;83.10
47310;DHT22;33046;52.270;6.832;2023-07-13T03:25:41;19.80;83.00
47310;DHT22;33046;52.270;6.832;2023-07-13T03:27:48;19.70;83.10
47310;DHT22;33046;52.270;6.832;2023-07-13T03:29:55;19.80;83.20
47310;DHT22;33046;52.270;6.832;2023-07-13T03:32:06;19.70;83.20
47310;DHT22;33046;52.270;6.832;2023-07-13T03:34:13;19.70;83.10
47310;DHT22;33046;52.270;6.832;2023-07-13T03:36:22;19.70;83.20
47310;DHT22;33046;52.270;6.832;2023-07-13T03:38:33;19.70;83.00
47310;DHT22;33046;52.270;6.832;2023-07-13T03:40:42;19.70;83.10
47310;DHT22;33046;52.270;6.832;2023-07-13T03:42:51;19.70;83.30
47310;DHT22;33046;52.270;6.832;2023-07-13T03:44:58;19.70;83.50
47310;DHT22;33046;52.270;6.832;2023-07-13T03:47:07;19.70;83.50
47310;DHT22;33046;52.270;6.832;2023-07-13T03:49:14;19.70;83.60
47310;DHT22;33046;52.270;6.832;2023-07-13T03:51:21;19.70;83.80
47310;DHT22;33046;52.270;6.832;2023-07-13T03:53:29;19.70;83.80
47310;DHT22;33046;52.270;6.832;2023-07-13T03:55:36;19.60;83.80
47310;DHT22;33046;52.270;6.832;2023-07-13T03:57:43;19.70;83.70
47310;DHT22;33046;52.270;6.832;2023-07-13T03:59:50;19.70;83.90
47310;DHT22;33046;52.270;6.832;2023-07-13T04:01:57;19.70;84.10
47310;DHT22;33046;52.270;6.832;2023-07-13T04:04:05;19.70;84.10
47310;DHT22;33046;52.270;6.832;2023-07-13T04:06:16;19.70;84.30
47310;DHT22;33046;52.270;6.832;2023-07-13T04:08:24;19.60;84.30
47310;DHT22;33046;52.270;6.832;2023-07-13T04:10:31;19.70;84.30
47310;DHT22;33046;52.270;6.832;2023-07-13T04:12:38;19.70;84.30
47310;DHT22;33046;52.270;6.832;2023-07-13T04:14:45;19.70;84.70
47310;DHT22;33046;52.270;6.832;2023-07-13T04:16:51;19.70;84.60
47310;DHT22;33046;52.270;6.832;2023-07-13T04:18:58;19.70;84.80
47310;DHT22;33046;52.270;6.832;2023-07-13T04:21:07;19.70;84.70
47310;DHT22;33046;52.270;6.832;2023-07-13T04:23:14;19.70;84.60
47310;DHT22;33046;52.270;6.832;2023-07-13T04:25:22;19.70;84.50
47310;DHT22;33046;52.270;6.832;2023-07-13T04:27:29;19.70;84.50
47310;DHT22;33046;52.270;6.832;2023-07-13T04:29:36;19.70;84.50
47310;DHT22;33046;52.270;6.832;2023-07-13T04:31:43;19.70;84.70
47310;DHT22;33046;52.270;6.832;2023-07-13T04:33:50;19.80;84.80
47310;DHT22;33046;52.270;6.832;2023-07-13T04:35:57;19.80;84.90
47310;DHT22;33046;52.270;6.832;2023-07-13T04:38:05;19.80;84.80
47310;DHT22;33046;52.270;6.832;2023-07-13T04:40:12;19.80;85.00
47310;DHT22;33046;52.270;6.832;2023-07-13T04:42:19;19.80;85.10
47310;DHT22;33046;52.270;6.832;2023-07-13T04:44:26;19.80;85.20
47310;DHT22;33046;52.270;6.832;2023-07-13T04:46:33;19.80;85.20
47310;DHT22;33046;52.270;6.832;2023-07-13T04:48:41;19.80;85.40
47310;DHT22;33046;52.270;6.832;2023-07-13T04:50:53;19.80;85.40
47310;DHT22;33046;52.270;6.832;2023-07-13T04:53:00;19.80;85.30
47310;DHT22;33046;52.270;6.832;2023-07-13T04:55:09;19.80;85.40
47310;DHT22;33046;52.270;6.832;2023-07-13T04:57:16;19.70;85.50
47310;DHT22;33046;52.270;6.832;2023-07-13T04:59:23;19.70;85.70
47310;DHT22;33046;52.270;6.832;2023-07-13T05:01:30;19.80;85.60
47310;DHT22;33046;52.270;6.832;2023-07-13T05:03:37;19.80;85.60
47310;DHT22;33046;52.270;6.832;2023-07-13T05:05:55;19.80;85.90
47310;DHT22;33046;52.270;6.832;2023-07-13T05:08:02;19.80;85.80
47310;DHT22;33046;52.270;6.832;2023-07-13T05:10:11;19.80;85.90
47310;DHT22;33046;52.270;6.832;2023-07-13T05:12:18;19.80;85.90
47310;DHT22;33046;52.270;6.832;2023-07-13T05:14:25;19.80;85.80
47310;DHT22;33046;52.270;6.832;2023-07-13T05:16:32;19.80;86.00
47310;DHT22;33046;52.270;6.832;2023-07-13T05:18:39;19.80;86.00
47310;DHT22;33046;52.270;6.832;2023-07-13T05:20:56;19.90;85.90
47310;DHT22;33046;52.270;6.832;2023-07-13T05:23:03;19.90;85.90
47310;DHT22;33046;52.270;6.832;2023-07-13T05:25:12;19.80;86.00
47310;DHT22;33046;52.270;6.832;2023-07-13T05:27:19;19.90;86.20
47310;DHT22;33046;52.270;6.832;2023-07-13T05:29:26;19.90;86.30
47310;DHT22;33046;52.270;6.832;2023-07-13T05:31:33;19.90;86.40
47310;DHT22;33046;52.270;6.832;2023-07-13T05:33:40;19.90;86.20
47310;DHT22;33046;52.270;6.832;2023-07-13T05:35:47;19.90;86.70
47310;DHT22;33046;52.270;6.832;2023-07-13T05:37:54;19.90;86.80
47310;DHT22;33046;52.270;6.832;2023-07-13T05:40:01;20.00;87.00
47310;DHT22;33046;52.270;6.832;2023-07-13T05:42:09;20.00;86.70
47310;DHT22;33046;52.270;6.832;2023-07-13T05:44:16;20.10;86.50
47310;DHT22;33046;52.270;6.832;2023-07-13T05:46:24;20.20;86.40
47310;DHT22;33046;52.270;6.832;2023-07-13T05:48:31;20.40;85.90
47310;DHT22;33046;52.270;6.832;2023-07-13T05:50:38;20.60;85.20
47310;DHT22;33046;52.270;6.832;2023-07-13T05:52:45;20.80;85.10
47310;DHT22;33046;52.270;6.832;2023-07-13T05:54:52;20.90;84.40
47310;DHT22;33046;52.270;6.832;2023-07-13T05:56:59;21.10;84.30
47310;DHT22;33046;52.270;6.832;2023-07-13T05:59:07;21.30;83.80
47310;DHT22;33046;52.270;6.832;2023-07-13T06:01:15;21.50;83.40
47310;DHT22;33046;52.270;6.832;2023-07-13T06:03:22;21.60;83.00
47310;DHT22;33046;52.270;6.832;2023-07-13T06:05:29;21.80;82.50
47310;DHT22;33046;52.270;6.832;2023-07-13T06:07:37;21.90;82.10
47310;DHT22;33046;52.270;6.832;2023-07-13T06:09:44;22.00;81.70
47310;DHT22;33046;52.270;6.832;2023-07-13T06:11:51;22.10;81.30
47310;DHT22;33046;52.270;6.832;2023-07-13T06:13:58;22.30;81.10
47310;DHT22;33046;52.270;6.832;2023-07-13T06:16:07;22.50;80.60
47310;DHT22;33046;52.270;6.832;2023-07-13T06:18:14;22.60;80.60
47310;DHT22;33046;52.270;6.832;2023-07-13T06:20:21;22.80;80.00
47310;DHT22;33046;52.270;6.832;2023-07-13T06:22:28;22.90;79.40
47310;DHT22;33046;52.270;6.832;2023-07-13T06:24:35;22.90;80.00
47310;DHT22;33046;52.270;6.832;2023-07-13T06:26:42;23.10;79.20
47310;DHT22;33046;52.270;6.832;2023-07-13T06:28:49;23.20;79.00
47310;DHT22;33046;52.270;6.832;2023-07-13T06:30:56;23.10;78.60
47310;DHT22;33046;52.270;6.832;2023-07-13T06:33:04;23.10;78.80
47310;DHT22;33046;52.270;6.832;2023-07-13T06:35:11;23.20;78.90
47310;DHT22;33046;52.270;6.832;2023-07-13T06:37:18;23.10;78.90
47310;DHT22;33046;52.270;6.832;2023-07-13T06:39:25;23.20;79.10
47310;DHT22;33046;52.270;6.832;2023-07-13T06:41:32;23.30;78.80
47310;DHT22;33046;52.270;6.832;2023-07-13T06:43:40;23.30;78.90
47310;DHT22;33046;52.270;6.832;2023-07-13T06:45:48;23.30;78.70
47310;DHT22;33046;52.270;6.832;2023-07-13T06:47:55;23.20;79.30
47310;DHT22;33046;52.270;6.832;2023-07-13T06:50:03;23.60;78.90
47310;DHT22;33046;52.270;6.832;2023-07-13T06:52:11;23.80;78.60
47310;DHT22;33046;52.270;6.832;2023-07-13T06:54:18;23.80;78.20
47310;DHT22;33046;52.270;6.832;2023-07-13T06:56:25;23.70;78.20
47310;DHT22;33046;52.270;6.832;2023-07-13T06:58:34;23.80;78.60
47310;DHT22;33046;52.270;6.832;2023-07-13T07:00:42;23.60;79.10
47310;DHT22;33046;52.270;6.832;2023-07-13T07:02:49;23.50;78.90
47310;DHT22;33046;52.270;6.832;2023-07-13T07:04:55;23.50;79.30
47310;DHT22;33046;52.270;6.832;2023-07-13T07:07:04;23.40;79.80
47310;DHT22;33046;52.270;6.832;2023-07-13T07:09:11;23.20;80.20
47310;DHT22;33046;52.270;6.832;2023-07-13T07:11:21;23.20;80.20
47310;DHT22;33046;52.270;6.832;2023-07-13T07:13:28;23.20;80.40
47310;DHT22;33046;52.270;6.832;2023-07-13T07:15:35;23.20;80.60
47310;DHT22;33046;52.270;6.832;2023-07-13T07:17:42;23.10;80.70
47310;DHT22;33046;52.270;6.832;2023-07-13T07:19:49;23.10;81.10
47310;DHT22;33046;52.270;6.832;2023-07-13T07:21:56;23.10;81.50
47310;DHT22;33046;52.270;6.832;2023-07-13T07:24:05;23.00;81.60
47310;DHT22;33046;52.270;6.832;2023-07-13T07:26:12;22.90;81.70
47310;DHT22;33046;52.270;6.832;2023-07-13T07:28:19;23.10;81.70
47310;DHT22;33046;52.270;6.832;2023-07-13T07:30:29;23.10;81.60
47310;DHT22;33046;52.270;6.832;2023-07-13T07:32:39;23.10;81.50
47310;DHT22;33046;52.270;6.832;2023-07-13T07:34:48;23.10;81.90
47310;DHT22;33046;52.270;6.832;2023-07-13T07:36:58;23.00;81.70
47310;DHT22;33046;52.270;6.832;2023-07-13T07:39:09;23.00;81.60
47310;DHT22;33046;52.270;6.832;2023-07-13T07:41:16;23.10;82.20
47310;DHT22;33046;52.270;6.832;2023-07-13T07:43:26;23.20;81.80
47310;DHT22;33046;52.270;6.832;2023-07-13T07:45:34;23.40;81.40
47310;DHT22;33046;52.270;6.832;2023-07-13T07:47:41;23.40;80.60
47310;DHT22;33046;52.270;6.832;2023-07-13T07:49:48;23.40;80.80
47310;DHT22;33046;52.270;6.832;2023-07-13T07:51:55;23.40;81.10
47310;DHT22;33046;52.270;6.832;2023-07-13T07:54:03;23.30;80.60
47310;DHT22;33046;52.270;6.832;2023-07-13T07:56:12;23.30;80.90
47310;DHT22;33046;52.270;6.832;2023-07-13T07:58:22;23.30;80.90
47310;DHT22;33046;52.270;6.832;2023-07-13T08:00:32;23.40;80.60
47310;DHT22;33046;52.270;6.832;2023-07-13T08:02:59;23.50;80.90
47310;DHT22;33046;52.270;6.832;2023-07-13T08:05:26;23.50;81.10
47310;DHT22;33046;52.270;6.832;2023-07-13T08:07:44;23.50;81.60
47310;DHT22;33046;52.270;6.832;2023-07-13T08:09:52;23.50;82.20
47310;DHT22;33046;52.270;6.832;2023-07-13T08:12:00;23.50;81.80
47310;DHT22;33046;52.270;6.832;2023-07-13T08:14:10;23.50;81.10
47310;DHT22;33046;52.270;6.832;2023-07-13T08:16:17;23.50;80.60
47310;DHT22;33046;52.270;6.832;2023-07-13T08:18:24;23.50;80.60
47310;DHT22;33046;52.270;6.832;2023-07-13T08:20:32;23.50;81.00
47310;DHT22;33046;52.270;6.832;2023-07-13T08:22:39;23.50;81.30
47310;DHT22;33046;52.270;6.832;2023-07-13T08:24:46;23.50;81.30
47310;DHT22;33046;52.270;6.832;2023-07-13T08:26:53;23.50;81.60
47310;DHT22;33046;52.270;6.832;2023-07-13T08:29:01;23.50;81.00
47310;DHT22;33046;52.270;6.832;2023-07-13T08:31:08;23.50;81.00
47310;DHT22;33046;52.270;6.832;2023-07-13T08:33:16;23.60;81.20
47310;DHT22;33046;52.270;6.832;2023-07-13T08:35:23;23.60;81.80
47310;DHT22;33046;52.270;6.832;2023-07-13T08:37:30;23.50;81.40
47310;DHT22;33046;52.270;6.832;2023-07-13T08:39:37;23.60;80.90
47310;DHT22;33046;52.270;6.832;2023-07-13T08:41:45;23.60;81.00
47310;DHT22;33046;52.270;6.832;2023-07-13T08:43:58;23.70;81.20
47310;DHT22;33046;52.270;6.832;2023-07-13T08:46:09;23.60;80.80
47310;DHT22;33046;52.270;6.832;2023-07-13T08:48:22;23.60;81.40
47310;DHT22;33046;52.270;6.832;2023-07-13T08:50:48;23.70;81.10
47310;DHT22;33046;52.270;6.832;2023-07-13T08:53:04;23.70;81.20
47310;DHT22;33046;52.270;6.832;2023-07-13T08:55:15;23.70;81.10
47310;DHT22;33046;52.270;6.832;2023-07-13T08:57:27;23.70;81.00
47310;DHT22;33046;52.270;6.832;2023-07-13T08:59:35;23.80;81.20
47310;DHT22;33046;52.270;6.832;2023-07-13T09:02:14;23.80;80.80
47310;DHT22;33046;52.270;6.832;2023-07-13T09:04:25;23.80;80.40
47310;DHT22;33046;52.270;6.832;2023-07-13T09:06:42;23.80;80.30
47310;DHT22;33046;52.270;6.832;2023-07-13T09:08:57;23.80;81.00
47310;DHT22;33046;52.270;6.832;2023-07-13T09:11:18;23.90;81.20
47310;DHT22;33046;52.270;6.832;2023-07-13T09:13:34;23.90;80.20
47310;DHT22;33046;52.270;6.832;2023-07-13T09:15:45;24.00;79.30
47310;DHT22;33046;52.270;6.832;2023-07-13T09:17:57;24.10;79.60
47310;DHT22;33046;52.270;6.832;2023-07-13T09:20:13;24.10;79.20
47310;DHT22;33046;52.270;6.832;2023-07-13T09:22:24;24.10;79.40
47310;DHT22;33046;52.270;6.832;2023-07-13T09:24:37;24.10;79.30
47310;DHT22;33046;52.270;6.832;2023-07-13T09:26:45;24.20;79.50
47310;DHT22;33046;52.270;6.832;2023-07-13T09:28:55;24.30;80.30
47310;DHT22;33046;52.270;6.832;2023-07-13T09:31:05;24.30;79.50
47310;DHT22;33046;52.270;6.832;2023-07-13T09:33:14;24.40;79.40
47310;DHT22;33046;52.270;6.832;2023-07-13T09:35:25;24.50;79.20
47310;DHT22;33046;52.270;6.832;2023-07-13T09:37:32;24.60;79.80
47310;DHT22;33046;52.270;6.832;2023-07-13T09:39:41;24.70;78.60
47310;DHT22;33046;52.270;6.832;2023-07-13T09:41:53;24.60;80.00
47310;DHT22;33046;52.270;6.832;2023-07-13T09:44:13;24.60;79.70
47310;DHT22;33046;52.270;6.832;2023-07-13T09:46:21;24.60;82.10
47310;DHT22;33046;52.270;6.832;2023-07-13T09:48:34;24.50;82.80
47310;DHT22;33046;52.270;6.832;2023-07-13T09:50:42;24.50;80.00
47310;DHT22;33046;52.270;6.832;2023-07-13T09:52:50;24.60;80.50
47310;DHT22;33046;52.270;6.832;2023-07-13T09:54:57;24.60;80.50
47310;DHT22;33046;52.270;6.832;2023-07-13T09:57:12;24.80;80.30
47310;DHT22;33046;52.270;6.832;2023-07-13T09:59:21;24.80;79.70
47310;DHT22;33046;52.270;6.832;2023-07-13T10:01:32;24.60;78.30
47310;DHT22;33046;52.270;6.832;2023-07-13T10:03:52;24.60;78.20
47310;DHT22;33046;52.270;6.832;2023-07-13T10:06:10;24.50;79.70
47310;DHT22;33046;52.270;6.832;2023-07-13T10:08:20;24.60;79.30
47310;DHT22;33046;52.270;6.832;2023-07-13T10:10:27;24.50;78.80
47310;DHT22;33046;52.270;6.832;2023-07-13T10:12:37;24.50;78.80
47310;DHT22;33046;52.270;6.832;2023-07-13T10:14:45;24.50;79.10
47310;DHT22;33046;52.270;6.832;2023-07-13T10:16:57;24.60;77.50
47310;DHT22;33046;52.270;6.832;2023-07-13T10:19:11;24.60;78.20
47310;DHT22;33046;52.270;6.832;2023-07-13T10:21:20;24.70;78.10
47310;DHT22;33046;52.270;6.832;2023-07-13T10:23:35;24.80;78.10
47310;DHT22;33046;52.270;6.832;2023-07-13T10:25:43;24.80;77.90
47310;DHT22;33046;52.270;6.832;2023-07-13T10:27:54;24.80;78.00
47310;DHT22;33046;52.270;6.832;2023-07-13T10:30:12;24.90;78.00
47310;DHT22;33046;52.270;6.832;2023-07-13T10:32:22;25.00;77.80
47310;DHT22;33046;52.270;6.832;2023-07-13T10:34:32;25.00;77.60
47310;DHT22;33046;52.270;6.832;2023-07-13T10:36:42;25.10;77.00
47310;DHT22;33046;52.270;6.832;2023-07-13T10:38:51;25.10;76.70
47310;DHT22;33046;52.270;6.832;2023-07-13T10:41:02;25.10;75.00
47310;DHT22;33046;52.270;6.832;2023-07-13T10:43:15;25.10;75.10
47310;DHT22;33046;52.270;6.832;2023-07-13T10:45:25;25.20;73.90
47310;DHT22;33046;52.270;6.832;2023-07-13T10:47:33;25.20;73.60
47310;DHT22;33046;52.270;6.832;2023-07-13T10:49:42;25.30;73.90
47310;DHT22;33046;52.270;6.832;2023-07-13T10:51:49;25.30;74.90
47310;DHT22;33046;52.270;6.832;2023-07-13T10:54:14;25.30;74.50
47310;DHT22;33046;52.270;6.832;2023-07-13T10:56:28;25.20;74.10
47310;DHT22;33046;52.270;6.832;2023-07-13T10:58:37;25.10;74.10
47310;DHT22;33046;52.270;6.832;2023-07-13T11:00:48;25.10;72.90
47310;DHT22;33046;52.270;6.832;2023-07-13T11:02:56;25.10;73.50
47310;DHT22;33046;52.270;6.832;2023-07-13T11:05:25;25.10;74.30
47310;DHT22;33046;52.270;6.832;2023-07-13T11:07:52;25.10;74.90
47310;DHT22;33046;52.270;6.832;2023-07-13T11:10:03;25.00;75.60
47310;DHT22;33046;52.270;6.832;2023-07-13T11:12:28;24.90;77.10
47310;DHT22;33046;52.270;6.832;2023-07-13T11:14:37;24.80;79.40
47310;DHT22;33046;52.270;6.832;2023-07-13T11:16:46;24.80;79.90
47310;DHT22;33046;52.270;6.832;2023-07-13T11:19:23;24.70;81.40
47310;DHT22;33046;52.270;6.832;2023-07-13T11:21:32;24.60;83.10
47310;DHT22;33046;52.270;6.832;2023-07-13T11:23:42;24.60;83.40
47310;DHT22;33046;52.270;6.832;2023-07-13T11:25:49;24.60;85.30
47310;DHT22;33046;52.270;6.832;2023-07-13T11:28:16;24.60;86.00
47310;DHT22;33046;52.270;6.832;2023-07-13T11:30:31;24.60;85.80
47310;DHT22;33046;52.270;6.832;2023-07-13T11:32:38;24.50;85.30
47310;DHT22;33046;52.270;6.832;2023-07-13T11:34:45;24.50;84.20
47310;DHT22;33046;52.270;6.832;2023-07-13T11:36:54;24.50;83.50
47310;DHT22;33046;52.270;6.832;2023-07-13T11:39:05;24.50;83.20
47310;DHT22;33046;52.270;6.832;2023-07-13T11:41:21;24.60;82.40
47310;DHT22;33046;52.270;6.832;2023-07-13T11:43:29;24.60;83.70
47310;DHT22;33046;52.270;6.832;2023-07-13T11:45:36;24.70;82.00
47310;DHT22;33046;52.270;6.832;2023-07-13T11:47:49;24.80;79.00
47310;DHT22;33046;52.270;6.832;2023-07-13T11:49:56;24.90;79.20
47310;DHT22;33046;52.270;6.832;2023-07-13T11:52:05;24.80;76.10
47310;DHT22;33046;52.270;6.832;2023-07-13T11:54:24;24.80;75.10
47310;DHT22;33046;52.270;6.832;2023-07-13T11:56:31;24.70;74.70
47310;DHT22;33046;52.270;6.832;2023-07-13T11:58:38;24.70;74.80
47310;DHT22;33046;52.270;6.832;2023-07-13T12:00:45;24.60;73.90
47310;DHT22;33046;52.270;6.832;2023-07-13T12:02:55;24.50;74.40
47310;DHT22;33046;52.270;6.832;2023-07-13T12:05:04;24.30;75.70
47310;DHT22;33046;52.270;6.832;2023-07-13T12:07:17;24.10;76.80
47310;DHT22;33046;52.270;6.832;2023-07-13T12:09:26;24.00;77.30
47310;DHT22;33046;52.270;6.832;2023-07-13T12:11:41;23.90;76.90
47310;DHT22;33046;52.270;6.832;2023-07-13T12:13:48;23.80;78.20
47310;DHT22;33046;52.270;6.832;2023-07-13T12:15:57;23.80;78.50
47310;DHT22;33046;52.270;6.832;2023-07-13T12:18:11;23.70;79.10
47310;DHT22;33046;52.270;6.832;2023-07-13T12:20:23;23.70;77.70
47310;DHT22;33046;52.270;6.832;2023-07-13T12:22:32;23.80;80.00
47310;DHT22;33046;52.270;6.832;2023-07-13T12:24:40;23.80;80.10
47310;DHT22;33046;52.270;6.832;2023-07-13T12:26:51;23.80;79.80
47310;DHT22;33046;52.270;6.832;2023-07-13T12:29:00;23.80;80.00
47310;DHT22;33046;52.270;6.832;2023-07-13T12:31:23;23.90;80.90
47310;DHT22;33046;52.270;6.832;2023-07-13T12:33:32;23.90;80.10
47310;DHT22;33046;52.270;6.832;2023-07-13T12:35:42;23.90;80.20
47310;DHT22;33046;52.270;6.832;2023-07-13T12:37:51;23.90;80.60
47310;DHT22;33046;52.270;6.832;2023-07-13T12:39:58;23.90;79.90
47310;DHT22;33046;52.270;6.832;2023-07-13T12:42:20;23.90;82.10
47310;DHT22;33046;52.270;6.832;2023-07-13T12:44:29;24.00;81.60
47310;DHT22;33046;52.270;6.832;2023-07-13T12:46:37;24.10;82.50
47310;DHT22;33046;52.270;6.832;2023-07-13T12:48:44;24.20;82.20
47310;DHT22;33046;52.270;6.832;2023-07-13T12:50:54;24.20;81.80
47310;DHT22;33046;52.270;6.832;2023-07-13T12:53:05;24.30;80.40
47310;DHT22;33046;52.270;6.832;2023-07-13T12:55:13;24.30;80.10
47310;DHT22;33046;52.270;6.832;2023-07-13T12:57:21;24.40;80.20
47310;DHT22;33046;52.270;6.832;2023-07-13T12:59:30;24.40;78.90
47310;DHT22;33046;52.270;6.832;2023-07-13T13:01:38;24.40;78.90
47310;DHT22;33046;52.270;6.832;2023-07-13T13:03:46;24.40;78.00
47310;DHT22;33046;52.270;6.832;2023-07-13T13:05:58;24.50;78.80
47310;DHT22;33046;52.270;6.832;2023-07-13T13:08:09;24.60;78.30
47310;DHT22;33046;52.270;6.832;2023-07-13T13:10:17;24.80;77.70
47310;DHT22;33046;52.270;6.832;2023-07-13T13:12:24;24.90;78.00
47310;DHT22;33046;52.270;6.832;2023-07-13T13:14:31;25.00;77.90
47310;DHT22;33046;52.270;6.832;2023-07-13T13:16:45;24.90;75.70
47310;DHT22;33046;52.270;6.832;2023-07-13T13:18:54;25.00;75.00
47310;DHT22;33046;52.270;6.832;2023-07-13T13:21:01;25.00;74.50
47310;DHT22;33046;52.270;6.832;2023-07-13T13:23:12;25.10;75.10
47310;DHT22;33046;52.270;6.832;2023-07-13T13:25:19;25.20;75.10
47310;DHT22;33046;52.270;6.832;2023-07-13T13:27:26;25.30;74.70
47310;DHT22;33046;52.270;6.832;2023-07-13T13:29:36;25.40;74.00
47310;DHT22;33046;52.270;6.832;2023-07-13T13:31:45;25.20;73.40
47310;DHT22;33046;52.270;6.832;2023-07-13T13:33:52;25.20;75.80
47310;DHT22;33046;52.270;6.832;2023-07-13T13:35:59;25.10;74.40